createdAt,value
2023-05-19T00:01:20.537Z,98306.97
2023-05-19T00:03:57.867Z,98290.75
2023-05-19T00:06:33.335Z,98288.09
2023-05-19T00:09:03.012Z,98292.06
2023-05-19T00:11:30.303Z,98257.06
2023-05-19T00:13:59.634Z,98295.38
2023-05-19T00:16:28.293Z,98281.63
2023-05-19T00:18:55.432Z,98285.47
2023-05-19T00:21:22.199Z,98277.66
2023-05-19T00:23:49.401Z,98277.75
2023-05-19T00:26:16.089Z,98246.97
2023-05-19T00:28:42.814Z,98257.16
2023-05-19T00:31:09.892Z,98256.84
2023-05-19T00:33:36.730Z,98251.41
2023-05-19T00:36:04.185Z,98266.31
2023-05-19T00:38:31.411Z,98242.25
2023-05-19T00:40:58.788Z,98246.09
2023-05-19T00:43:26.213Z,98248.50
2023-05-19T00:45:53.242Z,98260.44
2023-05-19T00:48:20.059Z,98243.69
2023-05-19T00:50:47.035Z,98231.34
2023-05-19T00:53:15.085Z,98232.91
2023-05-19T00:55:42.917Z,98248.28
2023-05-19T00:58:11.498Z,98247.97
2023-05-19T01:00:39.900Z,98243.63
2023-05-19T01:03:11.625Z,98242.66
2023-05-19T01:05:42.815Z,98248.28
2023-05-19T01:08:09.575Z,98253.16
2023-05-19T01:10:36.987Z,98250.25
2023-05-19T01:13:05.489Z,98246.66
2023-05-19T01:15:51.887Z,98244.47
2023-05-19T01:18:26.270Z,98228.81
2023-05-19T01:21:12.751Z,98210.69
2023-05-19T01:23:57.408Z,98252.16
2023-05-19T01:27:09.450Z,98244.47
2023-05-19T01:29:47.398Z,98254.13
2023-05-19T01:32:19.692Z,98252.81
2023-05-19T01:34:49.246Z,98247.66
2023-05-19T01:37:17.833Z,98240.72
2023-05-19T01:39:45.968Z,98247.53
2023-05-19T01:42:14.394Z,98245.31
2023-05-19T01:44:42.000Z,98238.31
2023-05-19T01:47:09.814Z,98213.59
2023-05-19T01:49:36.622Z,98229.16
2023-05-19T01:52:03.311Z,98214.84
2023-05-19T01:54:30.164Z,98244.53
2023-05-19T01:57:02.644Z,98252.06
2023-05-19T01:59:50.952Z,98246.13
2023-05-19T02:02:39.503Z,98240.50
2023-05-19T02:05:43.871Z,98239.66
2023-05-19T02:08:31.382Z,98230.97
2023-05-19T02:11:08.025Z,98207.69
2023-05-19T02:13:38.821Z,98229.88
2023-05-19T02:16:06.442Z,98220.97
2023-05-19T02:18:34.089Z,98212.00
2023-05-19T02:21:01.427Z,98217.72
2023-05-19T02:23:28.177Z,98217.16
2023-05-19T02:25:55.001Z,98217.72
2023-05-19T02:28:21.737Z,98216.00
2023-05-19T02:30:48.579Z,98208.19
2023-05-19T02:33:15.421Z,98208.41
2023-05-19T02:35:42.160Z,98210.00
2023-05-19T02:38:08.975Z,98215.97
2023-05-19T02:40:35.753Z,98187.88
2023-05-19T02:43:02.589Z,98178.06
2023-05-19T02:45:29.793Z,98196.97
2023-05-19T02:47:57.571Z,98203.19
2023-05-19T02:50:24.315Z,98207.00
2023-05-19T02:52:52.825Z,98194.31
2023-05-19T02:55:19.830Z,98198.44
2023-05-19T02:57:46.702Z,98216.00
2023-05-19T03:00:14.231Z,98193.38
2023-05-19T03:02:41.616Z,98193.59
2023-05-19T03:05:08.981Z,98198.25
2023-05-19T03:07:39.221Z,98189.38
2023-05-19T03:10:09.873Z,98186.72
2023-05-19T03:12:36.588Z,98198.00
2023-05-19T03:15:03.521Z,98199.84
2023-05-19T03:17:34.239Z,98177.69
2023-05-19T03:20:01.698Z,98198.94
2023-05-19T03:22:28.446Z,98184.69
2023-05-19T03:24:55.302Z,98195.47
2023-05-19T03:27:22.118Z,98196.81
2023-05-19T03:29:48.788Z,98195.41
2023-05-19T03:32:16.265Z,98183.59
2023-05-19T03:34:43.054Z,98201.47
2023-05-19T03:37:11.220Z,98202.00
2023-05-19T03:39:38.011Z,98206.06
2023-05-19T03:42:04.813Z,98222.16
2023-05-19T03:44:31.623Z,98210.38
2023-05-19T03:46:58.493Z,98219.25
2023-05-19T03:49:25.216Z,98207.88
2023-05-19T03:51:51.948Z,98205.16
2023-05-19T03:54:19.272Z,98223.00
2023-05-19T03:56:46.205Z,98219.09
2023-05-19T03:59:16.346Z,98208.03
2023-05-19T04:01:44.155Z,98226.03
2023-05-19T04:04:11.185Z,98217.94
2023-05-19T04:06:38.020Z,98237.66
2023-05-19T04:09:14.717Z,98234.38
2023-05-19T04:11:42.571Z,98226.97
2023-05-19T04:14:09.482Z,98241.22
2023-05-19T04:16:36.418Z,98233.66
2023-05-19T04:19:03.244Z,98214.97
2023-05-19T04:21:30.158Z,98213.50
2023-05-19T04:23:59.326Z,98201.03
2023-05-19T04:26:26.996Z,98205.38
2023-05-19T04:28:54.269Z,98204.03
2023-05-19T04:31:21.958Z,98210.50
2023-05-19T04:33:49.904Z,98219.16
2023-05-19T04:36:20.905Z,98221.56
2023-05-19T04:38:48.409Z,98218.72
2023-05-19T04:41:16.664Z,98214.31
2023-05-19T04:43:44.918Z,98202.88
2023-05-19T04:46:14.220Z,98201.41
2023-05-19T04:48:41.616Z,98203.59
2023-05-19T04:51:08.457Z,98182.63
2023-05-19T04:53:35.400Z,98213.72
2023-05-19T04:56:02.385Z,98216.38
2023-05-19T04:58:29.403Z,98221.22
2023-05-19T05:00:56.190Z,98213.94
2023-05-19T05:03:26.737Z,98206.69
2023-05-19T05:05:53.588Z,98207.78
2023-05-19T05:08:23.495Z,98220.59
2023-05-19T05:10:52.690Z,98209.97
2023-05-19T05:13:22.498Z,98217.22
2023-05-19T05:15:49.580Z,98221.19
2023-05-19T05:18:16.649Z,98208.19
2023-05-19T05:20:46.429Z,98192.50
2023-05-19T05:23:14.847Z,98197.66
2023-05-19T05:25:42.349Z,98222.44
2023-05-19T05:28:09.306Z,98210.84
2023-05-19T05:30:36.221Z,98239.06
2023-05-19T05:33:03.374Z,98217.91
2023-05-19T05:35:30.344Z,98238.16
2023-05-19T05:37:57.730Z,98224.06
2023-05-19T05:40:24.508Z,98224.81
2023-05-19T05:42:51.378Z,98225.41
2023-05-19T05:45:18.170Z,98235.06
2023-05-19T05:47:45.127Z,98246.56
2023-05-19T05:50:13.314Z,98226.31
2023-05-19T05:52:42.507Z,98243.38
2023-05-19T05:55:09.944Z,98243.38
2023-05-19T05:57:36.698Z,98237.97
2023-05-19T06:00:07.587Z,98216.63
2023-05-19T06:02:34.485Z,98224.56
2023-05-19T06:05:01.205Z,98232.06
2023-05-19T06:07:28.058Z,98236.28
2023-05-19T06:09:54.857Z,98227.31
2023-05-19T06:12:23.159Z,98236.00
2023-05-19T06:14:49.895Z,98244.88
2023-05-19T06:17:16.652Z,98244.25
2023-05-19T06:19:43.539Z,98243.66
2023-05-19T06:22:10.361Z,98251.31
2023-05-19T06:24:39.341Z,98257.16
2023-05-19T06:27:06.444Z,98252.84
2023-05-19T06:29:33.259Z,98256.56
2023-05-19T06:32:00.026Z,98238.63
2023-05-19T06:34:27.065Z,98247.41
2023-05-19T06:36:53.804Z,98238.34
2023-05-19T06:39:20.581Z,98247.28
2023-05-19T06:41:47.472Z,98250.47
2023-05-19T06:44:14.270Z,98245.88
2023-05-19T06:46:41.174Z,98223.31
2023-05-19T06:49:07.990Z,98235.41
2023-05-19T06:51:35.498Z,98260.34
2023-05-19T06:54:02.656Z,98241.44
2023-05-19T06:56:29.561Z,98249.47
2023-05-19T06:58:57.309Z,98232.16
2023-05-19T07:01:24.257Z,98253.63
2023-05-19T07:03:51.307Z,98254.53
2023-05-19T07:06:18.011Z,98247.97
2023-05-19T07:08:44.641Z,98235.38
2023-05-19T07:11:12.723Z,98245.41
2023-05-19T07:13:39.493Z,98251.84
2023-05-19T07:16:06.490Z,98238.47
2023-05-19T07:18:33.622Z,98235.44
2023-05-19T07:21:00.390Z,98236.53
2023-05-19T07:23:27.130Z,98247.06
2023-05-19T07:25:57.753Z,98252.13
2023-05-19T07:28:24.548Z,98246.88
2023-05-19T07:30:52.115Z,98248.03
2023-05-19T07:33:19.001Z,98258.81
2023-05-19T07:35:46.451Z,98249.03
2023-05-19T07:38:13.344Z,98236.59
2023-05-19T07:40:40.156Z,98187.69
2023-05-19T07:43:06.930Z,98242.66
2023-05-19T07:45:34.781Z,98238.81
2023-05-19T07:48:01.603Z,98194.59
2023-05-19T07:50:28.494Z,98246.09
2023-05-19T07:52:55.502Z,98246.59
2023-05-19T07:55:23.505Z,98247.53
2023-05-19T07:57:51.099Z,98261.84
2023-05-19T08:00:18.314Z,98236.88
2023-05-19T08:02:48.611Z,98245.16
2023-05-19T08:05:15.559Z,98244.09
2023-05-19T08:07:42.277Z,98251.16
2023-05-19T08:10:09.318Z,98247.19
2023-05-19T08:12:39.165Z,98242.53
2023-05-19T08:15:06.492Z,98249.75
2023-05-19T08:17:33.347Z,98247.59
2023-05-19T08:20:04.603Z,98252.16
2023-05-19T08:22:32.313Z,98263.44
2023-05-19T08:25:06.397Z,98248.03
2023-05-19T08:27:33.589Z,98184.81
2023-05-19T08:30:08.407Z,98259.84
2023-05-19T08:32:35.279Z,98255.78
2023-05-19T08:35:03.109Z,98235.47
2023-05-19T08:37:31.989Z,98255.28
2023-05-19T08:40:01.080Z,98258.84
2023-05-19T08:42:27.915Z,98256.44
2023-05-19T08:44:54.675Z,98255.63
2023-05-19T08:47:23.052Z,98238.09
2023-05-19T08:49:57.944Z,98273.13
2023-05-19T08:52:52.562Z,98249.94
2023-05-19T08:55:34.521Z,98276.56
2023-05-19T08:58:03.625Z,98274.94
2023-05-19T09:00:30.794Z,98258.78
2023-05-19T09:03:05.999Z,98271.13
2023-05-19T09:05:40.622Z,98271.47
2023-05-19T09:08:07.949Z,98252.78
2023-05-19T09:10:34.698Z,98278.69
2023-05-19T09:13:01.643Z,98259.13
2023-05-19T09:15:28.729Z,98274.91
2023-05-19T09:18:09.178Z,98280.03
2023-05-19T09:20:46.367Z,98266.13
2023-05-19T09:23:16.551Z,98261.28
2023-05-19T09:25:48.750Z,98280.47
2023-05-19T09:28:38.081Z,98273.91
2023-05-19T09:31:12.065Z,98246.22
2023-05-19T09:33:45.581Z,98274.63
2023-05-19T09:36:13.776Z,98269.91
2023-05-19T09:38:41.684Z,98276.31
2023-05-19T09:41:09.612Z,98259.59
2023-05-19T09:43:36.736Z,98253.16
2023-05-19T09:46:04.418Z,98285.53
2023-05-19T09:48:31.178Z,98268.81
2023-05-19T09:51:03.086Z,98278.47
2023-05-19T09:53:31.216Z,98281.06
2023-05-19T09:55:58.708Z,98264.63
2023-05-19T09:58:26.676Z,98251.56
2023-05-19T10:00:54.958Z,98266.66
2023-05-19T10:03:25.842Z,98277.19
2023-05-19T10:05:53.718Z,98246.00
2023-05-19T10:08:21.741Z,98284.00
2023-05-19T10:10:48.684Z,98254.16
2023-05-19T10:13:16.796Z,98280.13
2023-05-19T10:15:57.362Z,98281.13
2023-05-19T10:18:26.193Z,98275.16
2023-05-19T10:20:55.186Z,98267.13
2023-05-19T10:23:22.614Z,98273.56
2023-05-19T10:25:53.821Z,98265.69
2023-05-19T10:28:26.873Z,98258.44
2023-05-19T10:30:56.714Z,98257.81
2023-05-19T10:33:40.769Z,98263.34
2023-05-19T10:36:21.470Z,98268.50
2023-05-19T10:39:04.956Z,98238.47
2023-05-19T10:41:51.184Z,98265.06
2023-05-19T10:44:26.814Z,98256.03
2023-05-19T10:46:56.012Z,98228.84
2023-05-19T10:49:24.165Z,98250.38
2023-05-19T10:51:55.200Z,98255.22
2023-05-19T10:54:46.178Z,98264.81
2023-05-19T10:57:17.706Z,98241.00
2023-05-19T10:59:49.741Z,98248.88
2023-05-19T11:02:42.851Z,98264.31
2023-05-19T11:05:14.567Z,98261.44
2023-05-19T11:07:43.904Z,98251.03
2023-05-19T11:10:11.228Z,98252.13
2023-05-19T11:12:43.340Z,98266.28
2023-05-19T11:15:15.581Z,98266.75
2023-05-19T11:17:45.399Z,98243.38
2023-05-19T11:20:26.866Z,98244.97
2023-05-19T11:23:18.201Z,98266.69
2023-05-19T11:25:51.583Z,98247.88
2023-05-19T11:28:20.227Z,98258.84
2023-05-19T11:30:52.451Z,98242.19
2023-05-19T11:33:29.304Z,98212.91
2023-05-19T11:36:00.239Z,98231.72
2023-05-19T11:38:28.719Z,98240.59
2023-05-19T11:40:56.488Z,98266.13
2023-05-19T11:43:26.601Z,98211.03
2023-05-19T11:45:57.126Z,98265.50
2023-05-19T11:48:24.949Z,98263.13
2023-05-19T11:50:52.744Z,98257.47
2023-05-19T11:53:22.911Z,98262.63
2023-05-19T11:55:50.165Z,98259.38
2023-05-19T11:58:17.646Z,98220.44
2023-05-19T12:00:47.911Z,98245.25
2023-05-19T12:03:15.185Z,98256.66
2023-05-19T12:05:48.972Z,98272.59
2023-05-19T12:08:19.373Z,98245.25
2023-05-19T12:10:50.808Z,98268.75
2023-05-19T12:13:17.661Z,98262.00
2023-05-19T12:15:44.482Z,98254.59
2023-05-19T12:18:11.498Z,98261.50
2023-05-19T12:20:39.448Z,98258.28
2023-05-19T12:23:06.696Z,98254.09
2023-05-19T12:25:34.523Z,98260.69
2023-05-19T12:28:05.372Z,98264.69
2023-05-19T12:30:33.959Z,98256.00
2023-05-19T12:33:02.394Z,98244.16
2023-05-19T12:35:32.266Z,98257.81
2023-05-19T12:38:03.688Z,98233.06
2023-05-19T12:40:30.800Z,98255.38
2023-05-19T12:42:59.408Z,98250.59
2023-05-19T12:45:40.243Z,98257.00
2023-05-19T12:48:12.127Z,98261.81
2023-05-19T12:50:39.162Z,98230.78
2023-05-19T12:53:09.584Z,98257.00
2023-05-19T12:55:44.205Z,98246.38
2023-05-19T12:58:16.376Z,98234.34
2023-05-19T13:00:45.493Z,98247.19
2023-05-19T13:03:17.364Z,98253.94
2023-05-19T13:05:47.235Z,98252.16
2023-05-19T13:08:18.533Z,98244.78
2023-05-19T13:10:46.885Z,98234.97
2023-05-19T13:13:13.699Z,98236.44
2023-05-19T13:15:45.595Z,98244.16
2023-05-19T13:18:13.665Z,98237.22
2023-05-19T13:20:42.514Z,98233.53
2023-05-19T13:23:13.412Z,98234.47
2023-05-19T13:25:41.398Z,98231.75
2023-05-19T13:28:08.750Z,98237.22
2023-05-19T13:30:37.096Z,98234.50
2023-05-19T13:33:04.252Z,98234.34
2023-05-19T13:35:37.191Z,98241.72
2023-05-19T13:38:06.179Z,98230.97
2023-05-19T13:40:36.854Z,98237.22
2023-05-19T13:43:04.442Z,98219.38
2023-05-19T13:45:31.664Z,98230.00
2023-05-19T13:47:58.624Z,98214.88
2023-05-19T13:50:25.694Z,98224.19
2023-05-19T13:52:52.475Z,98231.59
2023-05-19T13:55:19.527Z,98225.31
2023-05-19T13:57:46.262Z,98227.91
2023-05-19T14:00:13.419Z,98231.91
2023-05-19T14:02:40.708Z,98229.19
2023-05-19T14:05:08.283Z,98233.84
2023-05-19T14:07:35.693Z,98238.84
2023-05-19T14:10:04.327Z,98229.38
2023-05-19T14:12:39.761Z,98239.47
2023-05-19T14:15:14.636Z,98253.47
2023-05-19T14:17:41.705Z,98243.66
2023-05-19T14:20:10.355Z,98248.78
2023-05-19T14:22:37.249Z,98253.47
2023-05-19T14:25:14.690Z,98237.53
2023-05-19T14:27:42.800Z,98254.72
2023-05-19T14:30:10.021Z,98239.47
2023-05-19T14:32:36.772Z,98256.63
2023-05-19T14:35:03.932Z,98256.47
2023-05-19T14:37:32.254Z,98234.22
2023-05-19T14:39:59.489Z,98260.97
2023-05-19T14:42:26.248Z,98251.78
2023-05-19T14:44:53.061Z,98245.53
2023-05-19T14:47:22.876Z,98250.03
2023-05-19T14:49:49.726Z,98243.75
2023-05-19T14:52:16.517Z,98257.75
2023-05-19T14:54:43.283Z,98267.41
2023-05-19T14:57:14.500Z,98262.56
2023-05-19T14:59:41.325Z,98245.97
2023-05-19T15:02:08.133Z,98259.50
2023-05-19T15:04:34.892Z,98272.38
2023-05-19T15:09:31.325Z,98260.16
2023-05-19T15:11:58.277Z,98270.28
2023-05-19T15:14:25.426Z,98263.00
2023-05-19T15:16:53.163Z,98261.75
2023-05-19T15:19:19.978Z,98256.63
2023-05-19T15:21:46.910Z,98254.88
2023-05-19T15:24:13.607Z,98255.34
2023-05-19T15:26:40.402Z,98249.72
2023-05-19T15:29:07.236Z,98254.81
2023-05-19T15:31:35.871Z,98254.16
2023-05-19T15:34:04.138Z,98244.66
2023-05-19T15:36:31.796Z,98249.50
2023-05-19T15:38:58.583Z,98256.72
2023-05-19T15:41:25.802Z,98263.94
2023-05-19T15:43:53.820Z,98247.69
2023-05-19T15:46:20.751Z,98229.06
2023-05-19T15:48:47.586Z,98253.06
2023-05-19T15:51:14.504Z,98257.25
2023-05-19T15:53:41.220Z,98257.84
2023-05-19T15:56:08.059Z,98253.53
2023-05-19T15:58:34.831Z,98249.97
2023-05-19T16:01:01.746Z,98239.66
2023-05-19T16:03:30.192Z,98259.41
2023-05-19T16:05:57.217Z,98255.41
2023-05-19T16:08:24.146Z,98262.13
2023-05-19T16:10:51.084Z,98252.19
2023-05-19T16:13:17.863Z,98256.69
2023-05-19T16:15:44.634Z,98256.47
2023-05-19T16:18:11.969Z,98257.59
2023-05-19T16:20:39.991Z,98255.97
2023-05-19T16:23:07.243Z,98259.69
2023-05-19T16:25:34.924Z,98263.03
2023-05-19T16:28:02.883Z,98258.53
2023-05-19T16:30:30.195Z,98254.69
2023-05-19T16:32:57.866Z,98260.13
2023-05-19T16:35:25.436Z,98262.38
2023-05-19T16:37:57.214Z,98265.91
2023-05-19T16:40:25.085Z,98244.34
2023-05-19T16:42:55.809Z,98252.72
2023-05-19T16:45:23.713Z,98216.66
2023-05-19T16:47:51.251Z,98207.84
2023-05-19T16:50:19.085Z,98257.53
2023-05-19T16:52:47.346Z,98267.47
2023-05-19T16:55:20.294Z,98261.38
2023-05-19T16:57:50.568Z,98272.28
2023-05-19T17:00:18.569Z,98233.84
2023-05-19T17:02:46.959Z,98262.19
2023-05-19T17:05:14.542Z,98252.72
2023-05-19T17:07:41.827Z,98253.66
2023-05-19T17:10:09.968Z,98259.75
2023-05-19T17:12:37.398Z,98257.66
2023-05-19T17:15:05.402Z,98269.78
2023-05-19T17:17:33.202Z,98264.47
2023-05-19T17:20:00.759Z,98261.63
2023-05-19T17:22:30.113Z,98240.09
2023-05-19T17:24:58.384Z,98266.31
2023-05-19T17:27:26.049Z,98257.28
2023-05-19T17:29:53.429Z,98259.22
2023-05-19T17:32:26.194Z,98253.09
2023-05-19T17:34:54.120Z,98235.88
2023-05-19T17:37:26.007Z,98268.19
2023-05-19T17:39:53.481Z,98269.78
2023-05-19T17:42:24.204Z,98264.44
2023-05-19T17:44:53.701Z,98288.03
2023-05-19T17:47:21.694Z,98271.00
2023-05-19T17:49:52.152Z,98273.84
2023-05-19T17:52:22.934Z,98281.22
2023-05-19T17:54:51.496Z,98283.28
2023-05-19T17:57:19.669Z,98293.06
2023-05-19T17:59:47.336Z,98285.81
2023-05-19T18:02:16.589Z,98279.50
2023-05-19T18:04:44.323Z,98300.88
2023-05-19T18:07:14.912Z,98284.97
2023-05-19T18:09:51.399Z,98285.13
2023-05-19T18:12:19.859Z,98295.53
2023-05-19T18:14:47.792Z,98292.31
2023-05-19T18:17:16.063Z,98287.97
2023-05-19T18:19:43.301Z,98292.03
2023-05-19T18:22:15.322Z,98289.09
2023-05-19T18:24:52.614Z,98291.63
2023-05-19T18:27:20.066Z,98291.47
2023-05-19T18:29:47.204Z,98290.03
2023-05-19T18:32:17.585Z,98296.91
2023-05-19T18:34:44.924Z,98233.13
2023-05-19T18:37:12.314Z,98303.16
2023-05-19T18:39:39.822Z,98297.09
2023-05-19T18:42:07.405Z,98306.19
2023-05-19T18:44:35.700Z,98296.41
2023-05-19T18:47:03.680Z,98298.63
2023-05-19T18:49:31.048Z,98315.31
2023-05-19T18:51:57.958Z,98313.03
2023-05-19T18:54:26.506Z,98308.91
2023-05-19T18:56:54.491Z,98309.41
2023-05-19T18:59:22.032Z,98301.84
2023-05-19T19:01:49.776Z,98306.00
2023-05-19T19:04:17.149Z,98310.63
2023-05-19T19:06:44.784Z,98317.09
2023-05-19T19:09:12.543Z,98296.75
2023-05-19T19:11:45.406Z,98319.50
2023-05-19T19:14:13.688Z,98318.03
2023-05-19T19:16:41.234Z,98314.50
2023-05-19T19:19:08.888Z,98327.53
2023-05-19T19:21:36.296Z,98339.09
2023-05-19T19:24:03.717Z,98334.28
2023-05-19T19:26:31.001Z,98330.47
2023-05-19T19:28:58.787Z,98332.06
2023-05-19T19:31:31.884Z,98329.22
2023-05-19T19:34:03.431Z,98327.91
2023-05-19T19:36:30.189Z,98331.44
2023-05-19T19:38:58.632Z,98327.41
2023-05-19T19:41:27.325Z,98332.97
2023-05-19T19:43:54.716Z,98337.00
2023-05-19T19:46:22.427Z,98331.84
2023-05-19T19:48:50.171Z,98324.28
2023-05-19T19:51:18.602Z,98326.91
2023-05-19T19:53:46.102Z,98300.34
2023-05-19T19:56:13.933Z,98319.34
2023-05-19T19:58:41.478Z,98295.19
2023-05-19T20:01:08.974Z,98326.41
2023-05-19T20:03:36.652Z,98318.06
2023-05-19T20:06:04.286Z,98326.72
2023-05-19T20:08:31.679Z,98307.94
2023-05-19T20:10:59.625Z,98313.53
2023-05-19T20:13:27.239Z,98315.34
2023-05-19T20:15:54.643Z,98317.22
2023-05-19T20:18:22.555Z,98321.09
2023-05-19T20:20:53.004Z,98316.53
2023-05-19T20:23:20.498Z,98323.00
2023-05-19T20:25:58.437Z,98326.47
2023-05-19T20:28:35.284Z,98305.38
2023-05-19T20:31:02.057Z,98317.66
2023-05-19T20:33:28.951Z,98324.53
2023-05-19T20:35:56.071Z,98323.03
2023-05-19T20:38:22.856Z,98321.63
2023-05-19T20:40:49.576Z,98319.00
2023-05-19T20:43:16.302Z,98303.28
2023-05-19T20:45:44.373Z,98310.22
2023-05-19T20:48:11.859Z,98304.78
2023-05-19T20:50:39.450Z,98303.34
2023-05-19T20:53:07.603Z,98284.84
2023-05-19T20:55:36.350Z,98289.06
2023-05-19T20:58:03.147Z,98280.19
2023-05-19T21:00:30.745Z,98293.06
2023-05-19T21:02:57.736Z,98291.78
2023-05-19T21:05:24.829Z,98302.97
2023-05-19T21:07:51.781Z,98295.75
2023-05-19T21:10:18.584Z,98305.38
2023-05-19T21:12:45.298Z,98292.00
2023-05-19T21:15:12.302Z,98294.41
2023-05-19T21:17:39.150Z,98285.66
2023-05-19T21:20:06.526Z,98309.88
2023-05-19T21:22:33.253Z,98311.38
2023-05-19T21:25:00.009Z,98311.69
2023-05-19T21:27:26.726Z,98304.84
2023-05-19T21:29:54.334Z,98303.41
2023-05-19T21:32:21.792Z,98329.13
2023-05-19T21:34:48.775Z,98331.94
2023-05-19T21:37:17.419Z,98327.88
2023-05-19T21:39:44.719Z,98336.56
2023-05-19T21:42:11.522Z,98322.94
2023-05-19T21:44:38.287Z,98335.44
2023-05-19T21:47:05.159Z,98330.84
2023-05-19T21:49:33.230Z,98327.03
2023-05-19T21:51:59.955Z,98325.50
2023-05-19T21:54:26.659Z,98319.13
2023-05-19T21:56:53.416Z,98324.06
2023-05-19T21:59:23.295Z,98318.31
2023-05-19T22:01:50.457Z,98312.19
2023-05-19T22:04:18.766Z,98312.38
2023-05-19T22:06:45.711Z,98315.09
2023-05-19T22:09:13.127Z,98318.94
2023-05-19T22:11:40.159Z,98307.56
2023-05-19T22:14:07.238Z,98309.47
2023-05-19T22:16:35.145Z,98258.56
2023-05-19T22:19:01.975Z,98301.72
2023-05-19T22:21:28.837Z,98311.47
2023-05-19T22:23:55.943Z,98300.91
2023-05-19T22:26:22.630Z,98304.94
2023-05-19T22:28:50.359Z,98306.03
2023-05-19T22:31:17.820Z,98303.81
2023-05-19T22:33:45.059Z,98307.06
2023-05-19T22:36:11.780Z,98301.47
2023-05-19T22:38:38.618Z,98293.13
2023-05-19T22:41:05.664Z,98286.56
2023-05-19T22:43:32.404Z,98290.59
2023-05-19T22:45:59.221Z,98290.00
2023-05-19T22:48:26.186Z,98293.53
2023-05-19T22:50:53.043Z,98290.59
2023-05-19T22:53:19.727Z,98279.72
2023-05-19T22:55:46.970Z,98274.06
2023-05-19T22:58:13.703Z,98274.41
2023-05-19T23:00:40.677Z,98273.28
2023-05-19T23:03:07.620Z,98269.56
2023-05-19T23:05:34.515Z,98271.84
2023-05-19T23:08:01.632Z,98241.63
2023-05-19T23:10:28.484Z,98273.28
2023-05-19T23:12:55.250Z,98271.06
2023-05-19T23:15:22.010Z,98255.34
2023-05-19T23:17:48.919Z,98257.94
2023-05-19T23:20:15.910Z,98264.50
2023-05-19T23:22:42.693Z,98265.63
2023-05-19T23:25:09.766Z,98262.91
2023-05-19T23:27:36.739Z,98264.00
2023-05-19T23:30:04.052Z,98257.56
2023-05-19T23:32:31.186Z,98270.84
2023-05-19T23:34:57.970Z,98268.00
2023-05-19T23:37:24.747Z,98265.91
2023-05-19T23:39:51.622Z,98267.41
2023-05-19T23:42:18.317Z,98267.63
2023-05-19T23:44:45.020Z,98267.84
2023-05-19T23:47:11.834Z,98265.91
2023-05-19T23:49:38.701Z,98265.41
2023-05-19T23:52:05.701Z,98266.22
2023-05-19T23:54:32.367Z,98267.34
2023-05-19T23:56:59.665Z,98264.63
2023-05-19T23:59:26.389Z,98275.56
